»·PEaware :: AAL419 KSAN-KPHX

AAL419 :: KSAN-KPHX

FLIGHT INFORMATION

Flight Status: Arrived
Operator:
American Airlines
More flights by this operator :: More flights under this callsign
Pilot: Nils Z. (23708)
Aircraft: BOEING 757-300
(B753)
More flights by this aircraft type
Origin: KSAN San Diego Intl-Lindbergh
United States
Destination: KPHX Phoenix Sky Harbor Intl
United States
More flights between these airports :: More routes between these airports
Route: +ZZOOO2 IPL J18 BZA HOGGZ HYDRR1
File this flight plan on PilotEdge
Remarks: RMK / SIMBRIEF
Altitude:
(Current/Filed)
33,000ft
Speed:
(Current/Filed)
420kts
Departed: 27-Feb-19 12:35 PM
Arrived: 27-Feb-19 01:22 PM
Distance/Time
Traveled:
264nm/0:47
Distance/Time
To Go:
Arrived

Flight Plot

Page will automatically refresh every two minutes.

Flight plan parsing failed; only flown route is shown


Map Options




Map Legend


Flown Route
Filed Route
Departure Airport
Arrival Airport
Navaid (VOR, NDB)
Fix

Horizontal Profiles

Position Reports

Time Latitude Longitude Heading Altitude Ground
Speed
27-Feb-19 12:10 32.732845 -117.201888 82 26ft 0kts
27-Feb-19 12:11 32.732845 -117.201888 82 26ft 0kts
27-Feb-19 12:12 32.732845 -117.201888 82 26ft 0kts
27-Feb-19 12:13 32.732845 -117.201888 82 26ft 0kts
27-Feb-19 12:14 32.732845 -117.201888 82 26ft 0kts
27-Feb-19 12:15 32.732845 -117.201888 82 26ft 0kts
27-Feb-19 12:16 32.732845 -117.201888 82 26ft 0kts
27-Feb-19 12:17 32.732845 -117.201888 82 26ft 0kts
27-Feb-19 12:18 32.732845 -117.201888 82 26ft 0kts
27-Feb-19 12:19 32.732845 -117.201888 82 26ft 0kts
27-Feb-19 12:20 32.732845 -117.201888 82 26ft 0kts
27-Feb-19 12:21 32.732845 -117.201888 82 26ft 0kts
27-Feb-19 12:22 32.732727 -117.202195 37 26ft 2kts
27-Feb-19 12:23 32.732487 -117.202297 4 26ft 0kts
27-Feb-19 12:24 32.732488 -117.202297 4 26ft 0kts
27-Feb-19 12:25 32.732656 -117.202349 341 26ft 3kts
27-Feb-19 12:26 32.733898 -117.202728 2 26ft 6kts
27-Feb-19 12:27 32.735404 -117.201691 99 26ft 6kts
27-Feb-19 12:28 32.734780 -117.198979 106 26ft 9kts
27-Feb-19 12:29 32.733927 -117.195496 107 26ft 11kts
27-Feb-19 12:30 32.732973 -117.191512 105 26ft 18kts
27-Feb-19 12:31 32.730957 -117.183181 106 26ft 20kts
27-Feb-19 12:32 32.729936 -117.178976 105 26ft 10kts
27-Feb-19 12:33 32.729499 -117.176898 82 26ft 1kts
27-Feb-19 12:34 32.730736 -117.178013 287 26ft 41kts
27-Feb-19 12:35 32.740740 -117.217939 290 444ft 175kts
27-Feb-19 12:36 32.756253 -117.277971 262 1861ft 217kts
27-Feb-19 12:37 32.706499 -117.290771 140 4196ft 240kts
27-Feb-19 12:38 32.649103 -117.249996 153 7535ft 246kts
27-Feb-19 12:39 32.625653 -117.168150 100 10082ft 298kts
27-Feb-19 12:40 32.615788 -117.054954 96 11987ft 365kts
27-Feb-19 12:41 32.606641 -116.933759 96 14726ft 392kts
27-Feb-19 12:42 32.627448 -116.800359 78 17363ft 421kts
27-Feb-19 12:43 32.644281 -116.658764 86 19765ft 442kts
27-Feb-19 12:44 32.658776 -116.509453 86 21953ft 463kts
27-Feb-19 12:45 32.672182 -116.352900 86 23882ft 481kts
27-Feb-19 12:46 32.687346 -116.190358 87 25671ft 499kts
27-Feb-19 12:47 32.703827 -116.023097 87 27356ft 515kts
27-Feb-19 12:48 32.719897 -115.849968 87 28886ft 532kts
27-Feb-19 12:49 32.736179 -115.672207 88 30253ft 547kts
27-Feb-19 12:50 32.751695 -115.489445 90 31805ft 555kts
27-Feb-19 12:51 32.755750 -115.306706 95 33007ft 539kts
27-Feb-19 12:52 32.759007 -115.123254 92 32995ft 556kts
27-Feb-19 12:53 32.763790 -114.938414 92 33009ft 560kts
27-Feb-19 12:54 32.767395 -114.754198 94 33034ft 539kts
27-Feb-19 12:55 32.769585 -114.574336 93 32091ft 547kts
27-Feb-19 12:56 32.773452 -114.394085 92 29591ft 539kts
27-Feb-19 12:57 32.776219 -114.213671 93 26989ft 529kts
27-Feb-19 12:58 32.781150 -114.040633 86 25029ft 505kts
27-Feb-19 12:59 32.798095 -113.883709 86 25042ft 468kts
27-Feb-19 13:00 32.815324 -113.729347 80 25042ft 469kts
27-Feb-19 13:01 32.884366 -113.599196 45 24764ft 475kts
27-Feb-19 13:02 32.970828 -113.481096 45 23000ft 469kts
27-Feb-19 13:03 33.048433 -113.376926 45 22072ft 436kts
27-Feb-19 13:04 33.126727 -113.271190 47 19210ft 409kts
27-Feb-19 13:05 33.200410 -113.170752 47 16897ft 391kts
27-Feb-19 13:06 33.267543 -113.069916 69 15045ft 384kts
27-Feb-19 13:07 33.278248 -112.948161 91 13588ft 358kts
27-Feb-19 13:08 33.282328 -112.834014 86 12634ft 330kts
27-Feb-19 13:09 33.313965 -112.734752 69 11632ft 314kts
27-Feb-19 13:10 33.347697 -112.645194 69 10622ft 280kts
27-Feb-19 13:11 33.379129 -112.562899 69 8873ft 265kts
27-Feb-19 13:12 33.408080 -112.487905 68 7497ft 223kts
27-Feb-19 13:13 33.432185 -112.427572 67 6622ft 187kts
27-Feb-19 13:14 33.447225 -112.362415 106 5861ft 203kts
27-Feb-19 13:15 33.428746 -112.298019 91 5309ft 204kts
27-Feb-19 13:16 33.428748 -112.229272 90 4414ft 204kts
27-Feb-19 13:17 33.428817 -112.161715 89 3348ft 200kts
27-Feb-19 13:18 33.428865 -112.101705 90 2366ft 152kts
27-Feb-19 13:19 33.428807 -112.054931 90 1582ft 136kts
27-Feb-19 13:20 33.428828 -112.014120 88 1124ft 55kts
27-Feb-19 13:21 33.429738 -112.010561 60 1126ft 6kts
27-Feb-19 13:22 33.431416 -112.008936 0 1130ft 3kts
27-Feb-19 13:23 33.431799 -112.008943 356 1130ft 2kts

Navigation Log

Ident Type
Flight plan parsing failed, navigation log unavailable